sensor_id;sensor_type;location;lat;lon;timestamp;P1;durP1;ratioP1;P2;durP2;ratioP2
24557;SDS011;12726;49.148;8.582;2023-04-10T00:01:49;12.63;;;8.55;;
24557;SDS011;12726;49.148;8.582;2023-04-10T00:04:34;12.77;;;8.10;;
24557;SDS011;12726;49.148;8.582;2023-04-10T00:07:20;12.88;;;8.25;;
24557;SDS011;12726;49.148;8.582;2023-04-10T00:10:05;13.40;;;8.32;;
24557;SDS011;12726;49.148;8.582;2023-04-10T00:12:51;11.38;;;7.50;;
24557;SDS011;12726;49.148;8.582;2023-04-10T00:15:37;11.13;;;7.50;;
24557;SDS011;12726;49.148;8.582;2023-04-10T00:18:23;12.32;;;8.10;;
24557;SDS011;12726;49.148;8.582;2023-04-10T00:21:09;12.20;;;8.18;;
24557;SDS011;12726;49.148;8.582;2023-04-10T00:23:54;13.95;;;8.43;;
24557;SDS011;12726;49.148;8.582;2023-04-10T00:26:39;12.70;;;8.10;;
24557;SDS011;12726;49.148;8.582;2023-04-10T00:29:25;12.70;;;8.60;;
24557;SDS011;12726;49.148;8.582;2023-04-10T00:32:12;13.13;;;8.57;;
24557;SDS011;12726;49.148;8.582;2023-04-10T00:34:57;12.70;;;8.45;;
24557;SDS011;12726;49.148;8.582;2023-04-10T00:37:42;13.23;;;8.50;;
24557;SDS011;12726;49.148;8.582;2023-04-10T00:40:27;13.38;;;8.98;;
24557;SDS011;12726;49.148;8.582;2023-04-10T00:43:13;10.63;;;7.88;;
24557;SDS011;12726;49.148;8.582;2023-04-10T00:45:58;14.02;;;8.68;;
24557;SDS011;12726;49.148;8.582;2023-04-10T00:48:45;13.70;;;8.95;;
24557;SDS011;12726;49.148;8.582;2023-04-10T00:51:30;12.10;;;8.38;;
24557;SDS011;12726;49.148;8.582;2023-04-10T00:54:16;10.15;;;7.32;;
24557;SDS011;12726;49.148;8.582;2023-04-10T00:57:01;15.20;;;8.52;;
24557;SDS011;12726;49.148;8.582;2023-04-10T00:59:48;13.88;;;7.97;;
24557;SDS011;12726;49.148;8.582;2023-04-10T01:02:34;14.48;;;8.48;;
24557;SDS011;12726;49.148;8.582;2023-04-10T01:05:21;13.70;;;8.60;;
24557;SDS011;12726;49.148;8.582;2023-04-10T01:08:23;13.18;;;8.20;;
24557;SDS011;12726;49.148;8.582;2023-04-10T01:11:17;16.08;;;9.23;;
24557;SDS011;12726;49.148;8.582;2023-04-10T01:14:14;14.65;;;9.50;;
24557;SDS011;12726;49.148;8.582;2023-04-10T01:17:05;14.95;;;9.57;;
24557;SDS011;12726;49.148;8.582;2023-04-10T01:19:56;14.30;;;8.45;;
24557;SDS011;12726;49.148;8.582;2023-04-10T01:22:51;12.43;;;7.78;;
24557;SDS011;12726;49.148;8.582;2023-04-10T01:25:51;13.00;;;8.35;;
24557;SDS011;12726;49.148;8.582;2023-04-10T01:28:52;13.02;;;8.63;;
24557;SDS011;12726;49.148;8.582;2023-04-10T01:31:43;13.70;;;8.73;;
24557;SDS011;12726;49.148;8.582;2023-04-10T01:34:34;14.43;;;8.75;;
24557;SDS011;12726;49.148;8.582;2023-04-10T01:37:24;13.13;;;8.50;;
24557;SDS011;12726;49.148;8.582;2023-04-10T01:40:14;12.50;;;8.73;;
24557;SDS011;12726;49.148;8.582;2023-04-10T01:43:03;15.05;;;9.63;;
24557;SDS011;12726;49.148;8.582;2023-04-10T01:45:53;14.52;;;8.95;;
24557;SDS011;12726;49.148;8.582;2023-04-10T01:48:41;15.55;;;9.45;;
24557;SDS011;12726;49.148;8.582;2023-04-10T01:51:29;15.73;;;9.07;;
24557;SDS011;12726;49.148;8.582;2023-04-10T01:54:16;15.77;;;9.33;;
24557;SDS011;12726;49.148;8.582;2023-04-10T01:57:02;14.48;;;8.98;;
24557;SDS011;12726;49.148;8.582;2023-04-10T01:59:49;13.80;;;9.07;;
24557;SDS011;12726;49.148;8.582;2023-04-10T02:02:36;13.65;;;9.00;;
24557;SDS011;12726;49.148;8.582;2023-04-10T02:05:22;14.75;;;9.32;;
24557;SDS011;12726;49.148;8.582;2023-04-10T02:08:14;14.98;;;9.05;;
24557;SDS011;12726;49.148;8.582;2023-04-10T02:11:06;15.13;;;8.50;;
24557;SDS011;12726;49.148;8.582;2023-04-10T02:13:57;14.85;;;9.23;;
24557;SDS011;12726;49.148;8.582;2023-04-10T02:16:46;14.38;;;8.65;;
24557;SDS011;12726;49.148;8.582;2023-04-10T02:19:35;13.88;;;8.43;;
24557;SDS011;12726;49.148;8.582;2023-04-10T02:22:22;15.13;;;9.30;;
24557;SDS011;12726;49.148;8.582;2023-04-10T02:25:09;15.00;;;9.82;;
24557;SDS011;12726;49.148;8.582;2023-04-10T02:27:54;14.27;;;9.68;;
24557;SDS011;12726;49.148;8.582;2023-04-10T02:30:40;15.15;;;9.75;;
24557;SDS011;12726;49.148;8.582;2023-04-10T02:33:26;16.05;;;9.88;;
24557;SDS011;12726;49.148;8.582;2023-04-10T02:36:12;15.20;;;9.05;;
24557;SDS011;12726;49.148;8.582;2023-04-10T02:38:58;15.55;;;9.23;;
24557;SDS011;12726;49.148;8.582;2023-04-10T02:41:43;15.02;;;8.82;;
24557;SDS011;12726;49.148;8.582;2023-04-10T02:44:29;13.27;;;8.73;;
24557;SDS011;12726;49.148;8.582;2023-04-10T02:47:14;13.02;;;8.82;;
24557;SDS011;12726;49.148;8.582;2023-04-10T02:50:01;13.70;;;8.65;;
24557;SDS011;12726;49.148;8.582;2023-04-10T02:52:47;15.13;;;9.18;;
24557;SDS011;12726;49.148;8.582;2023-04-10T02:55:32;15.10;;;8.85;;
24557;SDS011;12726;49.148;8.582;2023-04-10T02:58:18;13.52;;;8.70;;
24557;SDS011;12726;49.148;8.582;2023-04-10T03:01:04;15.65;;;8.43;;
24557;SDS011;12726;49.148;8.582;2023-04-10T03:03:50;13.52;;;8.70;;
24557;SDS011;12726;49.148;8.582;2023-04-10T03:06:36;12.63;;;8.95;;
24557;SDS011;12726;49.148;8.582;2023-04-10T03:09:23;13.93;;;8.82;;
24557;SDS011;12726;49.148;8.582;2023-04-10T03:12:09;13.82;;;8.45;;
24557;SDS011;12726;49.148;8.582;2023-04-10T03:14:54;13.25;;;8.55;;
24557;SDS011;12726;49.148;8.582;2023-04-10T03:17:40;15.57;;;9.90;;
24557;SDS011;12726;49.148;8.582;2023-04-10T03:20:25;14.55;;;9.13;;
24557;SDS011;12726;49.148;8.582;2023-04-10T03:23:10;14.20;;;9.55;;
24557;SDS011;12726;49.148;8.582;2023-04-10T03:25:57;15.25;;;9.15;;
24557;SDS011;12726;49.148;8.582;2023-04-10T03:28:43;11.98;;;8.57;;
24557;SDS011;12726;49.148;8.582;2023-04-10T03:31:28;12.52;;;8.27;;
24557;SDS011;12726;49.148;8.582;2023-04-10T03:34:14;13.02;;;8.57;;
24557;SDS011;12726;49.148;8.582;2023-04-10T03:36:59;15.30;;;8.82;;
24557;SDS011;12726;49.148;8.582;2023-04-10T03:39:46;13.75;;;8.70;;
24557;SDS011;12726;49.148;8.582;2023-04-10T03:42:32;13.13;;;8.75;;
24557;SDS011;12726;49.148;8.582;2023-04-10T03:45:18;13.02;;;8.77;;
24557;SDS011;12726;49.148;8.582;2023-04-10T03:48:03;11.77;;;8.20;;
24557;SDS011;12726;49.148;8.582;2023-04-10T03:50:49;15.20;;;8.77;;
24557;SDS011;12726;49.148;8.582;2023-04-10T03:53:34;15.60;;;9.75;;
24557;SDS011;12726;49.148;8.582;2023-04-10T03:56:20;17.40;;;10.30;;
24557;SDS011;12726;49.148;8.582;2023-04-10T03:59:06;16.67;;;9.88;;
24557;SDS011;12726;49.148;8.582;2023-04-10T04:01:52;16.52;;;9.43;;
24557;SDS011;12726;49.148;8.582;2023-04-10T04:04:37;16.38;;;10.20;;
24557;SDS011;12726;49.148;8.582;2023-04-10T04:07:22;16.08;;;10.35;;
24557;SDS011;12726;49.148;8.582;2023-04-10T04:10:08;13.07;;;8.38;;
24557;SDS011;12726;49.148;8.582;2023-04-10T04:12:53;15.95;;;9.38;;
24557;SDS011;12726;49.148;8.582;2023-04-10T04:15:40;17.92;;;11.23;;
24557;SDS011;12726;49.148;8.582;2023-04-10T04:18:25;20.10;;;11.95;;
24557;SDS011;12726;49.148;8.582;2023-04-10T04:21:11;18.40;;;11.32;;
24557;SDS011;12726;49.148;8.582;2023-04-10T04:23:57;15.68;;;10.00;;
24557;SDS011;12726;49.148;8.582;2023-04-10T04:26:42;14.02;;;9.82;;
24557;SDS011;12726;49.148;8.582;2023-04-10T04:29:27;15.52;;;9.60;;
24557;SDS011;12726;49.148;8.582;2023-04-10T04:32:14;15.32;;;9.05;;
24557;SDS011;12726;49.148;8.582;2023-04-10T04:35:00;16.30;;;9.30;;
24557;SDS011;12726;49.148;8.582;2023-04-10T04:37:45;14.25;;;8.60;;
24557;SDS011;12726;49.148;8.582;2023-04-10T04:40:31;14.48;;;8.73;;
24557;SDS011;12726;49.148;8.582;2023-04-10T04:43:16;14.77;;;8.93;;
24557;SDS011;12726;49.148;8.582;2023-04-10T04:46:02;13.13;;;8.57;;
24557;SDS011;12726;49.148;8.582;2023-04-10T04:48:48;12.00;;;8.27;;
24557;SDS011;12726;49.148;8.582;2023-04-10T04:51:34;16.67;;;10.13;;
24557;SDS011;12726;49.148;8.582;2023-04-10T04:54:20;14.33;;;8.97;;
24557;SDS011;12726;49.148;8.582;2023-04-10T04:57:06;16.33;;;10.68;;
24557;SDS011;12726;49.148;8.582;2023-04-10T04:59:51;17.50;;;10.88;;
24557;SDS011;12726;49.148;8.582;2023-04-10T05:02:37;15.48;;;9.52;;
24557;SDS011;12726;49.148;8.582;2023-04-10T05:05:24;15.02;;;9.18;;
24557;SDS011;12726;49.148;8.582;2023-04-10T05:08:09;12.82;;;8.65;;
24557;SDS011;12726;49.148;8.582;2023-04-10T05:10:55;13.60;;;8.73;;
24557;SDS011;12726;49.148;8.582;2023-04-10T05:13:40;15.30;;;8.95;;
24557;SDS011;12726;49.148;8.582;2023-04-10T05:16:25;13.52;;;8.70;;
24557;SDS011;12726;49.148;8.582;2023-04-10T05:19:11;13.88;;;8.77;;
24557;SDS011;12726;49.148;8.582;2023-04-10T05:21:58;12.85;;;8.98;;
24557;SDS011;12726;49.148;8.582;2023-04-10T05:24:44;13.70;;;8.60;;
24557;SDS011;12726;49.148;8.582;2023-04-10T05:27:29;12.25;;;8.10;;
24557;SDS011;12726;49.148;8.582;2023-04-10T05:30:14;12.15;;;8.02;;
24557;SDS011;12726;49.148;8.582;2023-04-10T05:33:00;13.45;;;8.60;;
24557;SDS011;12726;49.148;8.582;2023-04-10T05:35:45;10.68;;;7.50;;
24557;SDS011;12726;49.148;8.582;2023-04-10T05:38:32;13.75;;;8.88;;
24557;SDS011;12726;49.148;8.582;2023-04-10T05:41:17;13.38;;;8.13;;
24557;SDS011;12726;49.148;8.582;2023-04-10T05:44:03;11.65;;;8.50;;
24557;SDS011;12726;49.148;8.582;2023-04-10T05:46:48;13.38;;;8.82;;
24557;SDS011;12726;49.148;8.582;2023-04-10T05:49:34;12.00;;;7.65;;
24557;SDS011;12726;49.148;8.582;2023-04-10T05:52:19;11.75;;;7.88;;
24557;SDS011;12726;49.148;8.582;2023-04-10T05:55:07;12.90;;;8.35;;
24557;SDS011;12726;49.148;8.582;2023-04-10T05:57:52;12.88;;;8.13;;
24557;SDS011;12726;49.148;8.582;2023-04-10T06:00:38;13.30;;;8.55;;
24557;SDS011;12726;49.148;8.582;2023-04-10T06:03:23;10.80;;;7.60;;
24557;SDS011;12726;49.148;8.582;2023-04-10T06:06:10;12.90;;;8.48;;
24557;SDS011;12726;49.148;8.582;2023-04-10T06:08:55;10.60;;;7.63;;
24557;SDS011;12726;49.148;8.582;2023-04-10T06:11:42;11.23;;;7.45;;
24557;SDS011;12726;49.148;8.582;2023-04-10T06:14:27;12.32;;;8.20;;
24557;SDS011;12726;49.148;8.582;2023-04-10T06:17:13;11.75;;;8.20;;
24557;SDS011;12726;49.148;8.582;2023-04-10T06:19:58;10.00;;;7.70;;
24557;SDS011;12726;49.148;8.582;2023-04-10T06:22:47;11.68;;;7.50;;
24557;SDS011;12726;49.148;8.582;2023-04-10T06:25:32;9.68;;;7.15;;
24557;SDS011;12726;49.148;8.582;2023-04-10T06:28:19;12.30;;;8.00;;
24557;SDS011;12726;49.148;8.582;2023-04-10T06:31:05;11.02;;;7.28;;
24557;SDS011;12726;49.148;8.582;2023-04-10T06:33:51;10.50;;;7.10;;
24557;SDS011;12726;49.148;8.582;2023-04-10T06:36:36;10.95;;;7.15;;
24557;SDS011;12726;49.148;8.582;2023-04-10T06:39:21;10.65;;;7.53;;
24557;SDS011;12726;49.148;8.582;2023-04-10T06:42:07;10.52;;;7.57;;
24557;SDS011;12726;49.148;8.582;2023-04-10T06:44:54;11.20;;;6.60;;
24557;SDS011;12726;49.148;8.582;2023-04-10T06:47:39;9.63;;;6.50;;
24557;SDS011;12726;49.148;8.582;2023-04-10T06:50:25;9.63;;;6.75;;
24557;SDS011;12726;49.148;8.582;2023-04-10T06:53:10;8.32;;;5.90;;
24557;SDS011;12726;49.148;8.582;2023-04-10T06:55:56;9.30;;;6.35;;
24557;SDS011;12726;49.148;8.582;2023-04-10T06:58:42;8.63;;;6.53;;
24557;SDS011;12726;49.148;8.582;2023-04-10T07:01:28;9.10;;;6.20;;
24557;SDS011;12726;49.148;8.582;2023-04-10T07:04:13;8.30;;;6.45;;
24557;SDS011;12726;49.148;8.582;2023-04-10T07:06:59;7.78;;;6.00;;
24557;SDS011;12726;49.148;8.582;2023-04-10T07:09:44;8.43;;;6.45;;
24557;SDS011;12726;49.148;8.582;2023-04-10T07:12:30;8.05;;;6.38;;
24557;SDS011;12726;49.148;8.582;2023-04-10T07:15:15;9.38;;;6.55;;
24557;SDS011;12726;49.148;8.582;2023-04-10T07:18:02;7.88;;;6.40;;
24557;SDS011;12726;49.148;8.582;2023-04-10T07:20:47;9.88;;;6.60;;
24557;SDS011;12726;49.148;8.582;2023-04-10T07:23:34;8.93;;;6.40;;
24557;SDS011;12726;49.148;8.582;2023-04-10T07:26:20;7.75;;;6.85;;
24557;SDS011;12726;49.148;8.582;2023-04-10T07:29:05;8.43;;;6.72;;
24557;SDS011;12726;49.148;8.582;2023-04-10T07:31:51;8.73;;;6.70;;
24557;SDS011;12726;49.148;8.582;2023-04-10T07:34:38;8.43;;;6.88;;
24557;SDS011;12726;49.148;8.582;2023-04-10T07:37:24;7.97;;;6.38;;
24557;SDS011;12726;49.148;8.582;2023-04-10T07:40:10;8.48;;;6.43;;
24557;SDS011;12726;49.148;8.582;2023-04-10T07:42:55;7.30;;;5.70;;
24557;SDS011;12726;49.148;8.582;2023-04-10T07:45:41;8.95;;;6.82;;
24557;SDS011;12726;49.148;8.582;2023-04-10T07:48:26;8.52;;;6.55;;
24557;SDS011;12726;49.148;8.582;2023-04-10T07:51:13;9.23;;;6.82;;
24557;SDS011;12726;49.148;8.582;2023-04-10T07:53:58;11.35;;;6.55;;
24557;SDS011;12726;49.148;8.582;2023-04-10T07:56:44;8.55;;;7.03;;
24557;SDS011;12726;49.148;8.582;2023-04-10T07:59:29;8.38;;;6.38;;
24557;SDS011;12726;49.148;8.582;2023-04-10T08:02:14;10.23;;;6.30;;
24557;SDS011;12726;49.148;8.582;2023-04-10T08:05:00;8.65;;;6.55;;
24557;SDS011;12726;49.148;8.582;2023-04-10T08:07:46;9.35;;;6.07;;
24557;SDS011;12726;49.148;8.582;2023-04-10T08:10:32;9.38;;;6.75;;
24557;SDS011;12726;49.148;8.582;2023-04-10T08:13:20;7.15;;;6.20;;
24557;SDS011;12726;49.148;8.582;2023-04-10T08:16:05;5.70;;;4.40;;
24557;SDS011;12726;49.148;8.582;2023-04-10T08:18:51;4.82;;;4.30;;
24557;SDS011;12726;49.148;8.582;2023-04-10T08:21:37;5.82;;;4.75;;
24557;SDS011;12726;49.148;8.582;2023-04-10T08:24:24;4.78;;;4.13;;
24557;SDS011;12726;49.148;8.582;2023-04-10T08:27:09;5.53;;;4.35;;
24557;SDS011;12726;49.148;8.582;2023-04-10T08:29:54;5.65;;;4.35;;
24557;SDS011;12726;49.148;8.582;2023-04-10T08:32:40;5.63;;;4.53;;
24557;SDS011;12726;49.148;8.582;2023-04-10T08:35:25;5.22;;;4.45;;
24557;SDS011;12726;49.148;8.582;2023-04-10T08:38:10;6.00;;;4.60;;
24557;SDS011;12726;49.148;8.582;2023-04-10T08:40:57;5.60;;;4.25;;
24557;SDS011;12726;49.148;8.582;2023-04-10T08:43:43;4.25;;;3.58;;
24557;SDS011;12726;49.148;8.582;2023-04-10T08:46:29;4.85;;;4.05;;
24557;SDS011;12726;49.148;8.582;2023-04-10T08:49:21;4.68;;;4.13;;
24557;SDS011;12726;49.148;8.582;2023-04-10T08:52:13;4.80;;;4.03;;
24557;SDS011;12726;49.148;8.582;2023-04-10T08:55:04;4.85;;;3.85;;
24557;SDS011;12726;49.148;8.582;2023-04-10T08:57:53;5.43;;;4.20;;
24557;SDS011;12726;49.148;8.582;2023-04-10T09:00:38;6.15;;;4.57;;
24557;SDS011;12726;49.148;8.582;2023-04-10T09:03:24;4.82;;;3.92;;
24557;SDS011;12726;49.148;8.582;2023-04-10T09:06:10;5.40;;;4.28;;
24557;SDS011;12726;49.148;8.582;2023-04-10T09:08:56;4.93;;;4.13;;
24557;SDS011;12726;49.148;8.582;2023-04-10T09:11:55;5.07;;;4.03;;
24557;SDS011;12726;49.148;8.582;2023-04-10T09:14:44;5.05;;;3.95;;
24557;SDS011;12726;49.148;8.582;2023-04-10T09:17:32;6.10;;;3.83;;
24557;SDS011;12726;49.148;8.582;2023-04-10T09:20:19;4.47;;;3.60;;
24557;SDS011;12726;49.148;8.582;2023-04-10T09:23:18;6.28;;;4.13;;
24557;SDS011;12726;49.148;8.582;2023-04-10T09:29:07;4.90;;;3.67;;
24557;SDS011;12726;49.148;8.582;2023-04-10T09:31:56;5.63;;;4.03;;
24557;SDS011;12726;49.148;8.582;2023-04-10T09:34:50;5.45;;;4.10;;
24557;SDS011;12726;49.148;8.582;2023-04-10T09:37:37;4.30;;;3.63;;
24557;SDS011;12726;49.148;8.582;2023-04-10T09:40:25;4.80;;;3.22;;
24557;SDS011;12726;49.148;8.582;2023-04-10T09:43:17;4.20;;;3.55;;
24557;SDS011;12726;49.148;8.582;2023-04-10T09:46:03;4.85;;;3.80;;
24557;SDS011;12726;49.148;8.582;2023-04-10T09:48:54;4.10;;;3.47;;
24557;SDS011;12726;49.148;8.582;2023-04-10T09:51:40;4.55;;;3.75;;
24557;SDS011;12726;49.148;8.582;2023-04-10T09:54:34;3.92;;;3.33;;
24557;SDS011;12726;49.148;8.582;2023-04-10T09:57:21;4.75;;;3.45;;
24557;SDS011;12726;49.148;8.582;2023-04-10T10:00:08;3.55;;;3.25;;
24557;SDS011;12726;49.148;8.582;2023-04-10T10:02:55;3.78;;;3.38;;
24557;SDS011;12726;49.148;8.582;2023-04-10T10:05:45;4.47;;;3.25;;
24557;SDS011;12726;49.148;8.582;2023-04-10T10:08:31;4.00;;;3.17;;
24557;SDS011;12726;49.148;8.582;2023-04-10T10:11:19;3.10;;;2.65;;
24557;SDS011;12726;49.148;8.582;2023-04-10T10:14:14;3.22;;;2.80;;
24557;SDS011;12726;49.148;8.582;2023-04-10T10:17:06;5.38;;;3.10;;
24557;SDS011;12726;49.148;8.582;2023-04-10T10:19:56;3.08;;;2.78;;
24557;SDS011;12726;49.148;8.582;2023-04-10T10:22:48;3.10;;;2.70;;
24557;SDS011;12726;49.148;8.582;2023-04-10T10:25:34;4.20;;;3.03;;
24557;SDS011;12726;49.148;8.582;2023-04-10T10:28:19;3.38;;;3.00;;
24557;SDS011;12726;49.148;8.582;2023-04-10T10:31:05;3.72;;;3.00;;
24557;SDS011;12726;49.148;8.582;2023-04-10T10:33:52;3.10;;;2.70;;
24557;SDS011;12726;49.148;8.582;2023-04-10T10:36:38;2.95;;;2.22;;
24557;SDS011;12726;49.148;8.582;2023-04-10T10:39:27;2.78;;;2.22;;
24557;SDS011;12726;49.148;8.582;2023-04-10T10:42:20;3.10;;;2.05;;
24557;SDS011;12726;49.148;8.582;2023-04-10T10:45:11;3.67;;;2.72;;
24557;SDS011;12726;49.148;8.582;2023-04-10T10:47:59;3.17;;;2.25;;
24557;SDS011;12726;49.148;8.582;2023-04-10T10:50:51;2.90;;;2.33;;
24557;SDS011;12726;49.148;8.582;2023-04-10T10:53:41;3.40;;;2.45;;
24557;SDS011;12726;49.148;8.582;2023-04-10T10:56:35;2.58;;;2.10;;
24557;SDS011;12726;49.148;8.582;2023-04-10T11:02:39;4.90;;;2.20;;
24557;SDS011;12726;49.148;8.582;2023-04-10T11:08:35;3.17;;;2.10;;
24557;SDS011;12726;49.148;8.582;2023-04-10T11:11:30;1.93;;;1.83;;
24557;SDS011;12726;49.148;8.582;2023-04-10T11:14:37;2.53;;;2.03;;
24557;SDS011;12726;49.148;8.582;2023-04-10T11:20:36;2.55;;;1.75;;
24557;SDS011;12726;49.148;8.582;2023-04-10T11:24:01;2.05;;;1.80;;
24557;SDS011;12726;49.148;8.582;2023-04-10T11:26:48;1.77;;;1.67;;
24557;SDS011;12726;49.148;8.582;2023-04-10T11:29:33;2.60;;;1.90;;
24557;SDS011;12726;49.148;8.582;2023-04-10T11:32:21;1.65;;;1.55;;
24557;SDS011;12726;49.148;8.582;2023-04-10T11:35:06;3.17;;;1.85;;
24557;SDS011;12726;49.148;8.582;2023-04-10T11:38:06;2.22;;;1.70;;
24557;SDS011;12726;49.148;8.582;2023-04-10T11:40:57;1.75;;;1.63;;
24557;SDS011;12726;49.148;8.582;2023-04-10T11:43:45;3.50;;;1.83;;
24557;SDS011;12726;49.148;8.582;2023-04-10T11:46:35;1.58;;;1.48;;
24557;SDS011;12726;49.148;8.582;2023-04-10T11:49:23;2.05;;;1.40;;
24557;SDS011;12726;49.148;8.582;2023-04-10T11:52:11;2.00;;;1.73;;
24557;SDS011;12726;49.148;8.582;2023-04-10T11:54:56;1.98;;;1.50;;
24557;SDS011;12726;49.148;8.582;2023-04-10T11:57:42;2.00;;;1.48;;
24557;SDS011;12726;49.148;8.582;2023-04-10T12:00:28;1.50;;;1.40;;
24557;SDS011;12726;49.148;8.582;2023-04-10T12:03:13;1.67;;;1.50;;
24557;SDS011;12726;49.148;8.582;2023-04-10T12:06:00;1.90;;;1.45;;
24557;SDS011;12726;49.148;8.582;2023-04-10T12:08:46;1.95;;;1.50;;
24557;SDS011;12726;49.148;8.582;2023-04-10T12:11:33;1.67;;;1.33;;
24557;SDS011;12726;49.148;8.582;2023-04-10T12:14:19;2.60;;;1.17;;
24557;SDS011;12726;49.148;8.582;2023-04-10T12:17:06;1.55;;;1.27;;
24557;SDS011;12726;49.148;8.582;2023-04-10T12:19:53;1.60;;;1.30;;
24557;SDS011;12726;49.148;8.582;2023-04-10T12:22:40;1.80;;;1.38;;
24557;SDS011;12726;49.148;8.582;2023-04-10T12:25:27;1.38;;;1.20;;
24557;SDS011;12726;49.148;8.582;2023-04-10T12:28:15;1.45;;;1.20;;
24557;SDS011;12726;49.148;8.582;2023-04-10T12:31:02;1.63;;;1.27;;
24557;SDS011;12726;49.148;8.582;2023-04-10T12:33:47;1.60;;;1.27;;
24557;SDS011;12726;49.148;8.582;2023-04-10T12:36:36;1.25;;;1.15;;
24557;SDS011;12726;49.148;8.582;2023-04-10T12:39:23;1.35;;;1.25;;
24557;SDS011;12726;49.148;8.582;2023-04-10T12:42:09;1.75;;;1.20;;
24557;SDS011;12726;49.148;8.582;2023-04-10T12:44:56;1.40;;;1.10;;
24557;SDS011;12726;49.148;8.582;2023-04-10T12:47:43;1.05;;;0.80;;
24557;SDS011;12726;49.148;8.582;2023-04-10T12:50:30;1.17;;;0.90;;
24557;SDS011;12726;49.148;8.582;2023-04-10T12:53:15;1.05;;;0.90;;
24557;SDS011;12726;49.148;8.582;2023-04-10T12:56:03;3.83;;;1.25;;
24557;SDS011;12726;49.148;8.582;2023-04-10T12:58:52;1.23;;;1.02;;
24557;SDS011;12726;49.148;8.582;2023-04-10T13:01:50;1.15;;;1.05;;
24557;SDS011;12726;49.148;8.582;2023-04-10T13:04:35;1.30;;;1.20;;
24557;SDS011;12726;49.148;8.582;2023-04-10T13:07:21;0.93;;;0.70;;
24557;SDS011;12726;49.148;8.582;2023-04-10T13:10:06;1.55;;;0.90;;
24557;SDS011;12726;49.148;8.582;2023-04-10T13:12:54;0.80;;;0.80;;
24557;SDS011;12726;49.148;8.582;2023-04-10T13:15:39;1.00;;;0.93;;
24557;SDS011;12726;49.148;8.582;2023-04-10T13:18:25;0.90;;;0.80;;
24557;SDS011;12726;49.148;8.582;2023-04-10T13:21:10;1.10;;;1.00;;
24557;SDS011;12726;49.148;8.582;2023-04-10T13:24:01;1.00;;;0.90;;
24557;SDS011;12726;49.148;8.582;2023-04-10T13:26:46;1.08;;;0.90;;
24557;SDS011;12726;49.148;8.582;2023-04-10T13:29:33;1.13;;;1.00;;
24557;SDS011;12726;49.148;8.582;2023-04-10T13:32:18;0.80;;;0.80;;
24557;SDS011;12726;49.148;8.582;2023-04-10T13:35:04;1.10;;;0.90;;
24557;SDS011;12726;49.148;8.582;2023-04-10T13:37:50;1.73;;;0.95;;
24557;SDS011;12726;49.148;8.582;2023-04-10T13:40:37;0.70;;;0.70;;
24557;SDS011;12726;49.148;8.582;2023-04-10T13:43:23;2.95;;;1.38;;
24557;SDS011;12726;49.148;8.582;2023-04-10T13:46:09;1.35;;;1.20;;
24557;SDS011;12726;49.148;8.582;2023-04-10T13:48:55;1.58;;;1.38;;
24557;SDS011;12726;49.148;8.582;2023-04-10T13:51:40;1.98;;;1.42;;
24557;SDS011;12726;49.148;8.582;2023-04-10T13:54:26;1.50;;;1.40;;
24557;SDS011;12726;49.148;8.582;2023-04-10T13:57:11;2.00;;;1.60;;
24557;SDS011;12726;49.148;8.582;2023-04-10T13:59:57;1.75;;;1.58;;
24557;SDS011;12726;49.148;8.582;2023-04-10T14:02:44;2.97;;;1.45;;
24557;SDS011;12726;49.148;8.582;2023-04-10T14:05:29;1.65;;;1.55;;
24557;SDS011;12726;49.148;8.582;2023-04-10T14:08:15;1.77;;;1.50;;
24557;SDS011;12726;49.148;8.582;2023-04-10T14:11:01;1.92;;;1.60;;
24557;SDS011;12726;49.148;8.582;2023-04-10T14:13:46;1.67;;;1.48;;
24557;SDS011;12726;49.148;8.582;2023-04-10T14:16:31;2.13;;;1.42;;
24557;SDS011;12726;49.148;8.582;2023-04-10T14:19:18;1.63;;;1.30;;
24557;SDS011;12726;49.148;8.582;2023-04-10T14:22:03;2.47;;;1.55;;
24557;SDS011;12726;49.148;8.582;2023-04-10T14:24:49;2.35;;;1.40;;
24557;SDS011;12726;49.148;8.582;2023-04-10T14:27:35;1.48;;;1.38;;
24557;SDS011;12726;49.148;8.582;2023-04-10T14:30:20;3.40;;;1.50;;
24557;SDS011;12726;49.148;8.582;2023-04-10T14:33:06;1.73;;;1.38;;
24557;SDS011;12726;49.148;8.582;2023-04-10T14:35:52;2.70;;;1.40;;
24557;SDS011;12726;49.148;8.582;2023-04-10T14:38:38;1.95;;;1.42;;
24557;SDS011;12726;49.148;8.582;2023-04-10T14:41:23;1.50;;;1.40;;
24557;SDS011;12726;49.148;8.582;2023-04-10T14:44:09;1.45;;;1.35;;
24557;SDS011;12726;49.148;8.582;2023-04-10T14:46:54;2.05;;;1.50;;
24557;SDS011;12726;49.148;8.582;2023-04-10T14:49:40;1.75;;;1.48;;
24557;SDS011;12726;49.148;8.582;2023-04-10T14:52:26;1.75;;;1.35;;
24557;SDS011;12726;49.148;8.582;2023-04-10T14:55:12;3.47;;;2.78;;
24557;SDS011;12726;49.148;8.582;2023-04-10T14:57:57;4.05;;;1.50;;
24557;SDS011;12726;49.148;8.582;2023-04-10T15:00:42;2.03;;;1.38;;
24557;SDS011;12726;49.148;8.582;2023-04-10T15:03:28;1.52;;;1.23;;
24557;SDS011;12726;49.148;8.582;2023-04-10T15:06:13;2.85;;;1.58;;
24557;SDS011;12726;49.148;8.582;2023-04-10T15:09:00;3.00;;;2.10;;
24557;SDS011;12726;49.148;8.582;2023-04-10T15:11:45;1.98;;;1.58;;
24557;SDS011;12726;49.148;8.582;2023-04-10T15:14:31;1.50;;;1.40;;
24557;SDS011;12726;49.148;8.582;2023-04-10T15:17:16;1.75;;;1.42;;
24557;SDS011;12726;49.148;8.582;2023-04-10T15:20:05;2.17;;;1.67;;
24557;SDS011;12726;49.148;8.582;2023-04-10T15:22:50;2.92;;;1.70;;
24557;SDS011;12726;49.148;8.582;2023-04-10T15:25:37;2.03;;;1.30;;
24557;SDS011;12726;49.148;8.582;2023-04-10T15:28:23;1.40;;;1.23;;
24557;SDS011;12726;49.148;8.582;2023-04-10T15:31:11;1.60;;;1.50;;
24557;SDS011;12726;49.148;8.582;2023-04-10T15:33:56;1.92;;;1.65;;
24557;SDS011;12726;49.148;8.582;2023-04-10T15:36:41;4.07;;;3.65;;
24557;SDS011;12726;49.148;8.582;2023-04-10T15:39:27;2.20;;;1.67;;
24557;SDS011;12726;49.148;8.582;2023-04-10T15:42:14;1.63;;;1.42;;
24557;SDS011;12726;49.148;8.582;2023-04-10T15:45:00;1.77;;;1.25;;
24557;SDS011;12726;49.148;8.582;2023-04-10T15:47:46;2.08;;;1.70;;
24557;SDS011;12726;49.148;8.582;2023-04-10T15:50:32;2.40;;;1.67;;
24557;SDS011;12726;49.148;8.582;2023-04-10T15:53:17;1.98;;;1.60;;
24557;SDS011;12726;49.148;8.582;2023-04-10T15:56:03;2.47;;;1.70;;
24557;SDS011;12726;49.148;8.582;2023-04-10T15:58:50;2.38;;;1.60;;
24557;SDS011;12726;49.148;8.582;2023-04-10T16:01:35;2.20;;;1.88;;
24557;SDS011;12726;49.148;8.582;2023-04-10T16:04:21;2.58;;;2.00;;
24557;SDS011;12726;49.148;8.582;2023-04-10T16:07:06;2.65;;;1.77;;
24557;SDS011;12726;49.148;8.582;2023-04-10T16:09:51;2.35;;;1.90;;
24557;SDS011;12726;49.148;8.582;2023-04-10T16:12:37;2.38;;;1.73;;
24557;SDS011;12726;49.148;8.582;2023-04-10T16:15:24;1.92;;;1.70;;
24557;SDS011;12726;49.148;8.582;2023-04-10T16:18:11;2.88;;;1.50;;
24557;SDS011;12726;49.148;8.582;2023-04-10T16:20:56;2.05;;;1.77;;
24557;SDS011;12726;49.148;8.582;2023-04-10T16:23:42;2.50;;;1.95;;
24557;SDS011;12726;49.148;8.582;2023-04-10T16:26:27;1.60;;;1.50;;
24557;SDS011;12726;49.148;8.582;2023-04-10T16:29:13;2.03;;;1.60;;
24557;SDS011;12726;49.148;8.582;2023-04-10T16:32:00;1.92;;;1.63;;
24557;SDS011;12726;49.148;8.582;2023-04-10T16:34:45;3.20;;;2.30;;
24557;SDS011;12726;49.148;8.582;2023-04-10T16:37:31;3.20;;;2.53;;
24557;SDS011;12726;49.148;8.582;2023-04-10T16:40:16;3.33;;;1.80;;
24557;SDS011;12726;49.148;8.582;2023-04-10T16:43:01;2.15;;;1.60;;
24557;SDS011;12726;49.148;8.582;2023-04-10T16:45:52;3.10;;;1.90;;
24557;SDS011;12726;49.148;8.582;2023-04-10T16:48:39;3.53;;;1.95;;
24557;SDS011;12726;49.148;8.582;2023-04-10T16:51:24;2.67;;;1.88;;
24557;SDS011;12726;49.148;8.582;2023-04-10T16:54:11;2.03;;;1.80;;